sensor_id;sensor_type;location;lat;lon;timestamp;temperature;humidity
3198;DHT22;1611;49.394;11.136;2023-04-01T00:01:01;8.90;72.60
3198;DHT22;1611;49.394;11.136;2023-04-01T00:03:29;8.90;71.00
3198;DHT22;1611;49.394;11.136;2023-04-01T00:05:56;8.90;71.10
3198;DHT22;1611;49.394;11.136;2023-04-01T00:08:24;9.00;70.40
3198;DHT22;1611;49.394;11.136;2023-04-01T00:10:53;9.00;70.00
3198;DHT22;1611;49.394;11.136;2023-04-01T00:13:21;9.00;70.30
3198;DHT22;1611;49.394;11.136;2023-04-01T00:15:47;9.00;70.10
3198;DHT22;1611;49.394;11.136;2023-04-01T00:18:15;9.00;70.60
3198;DHT22;1611;49.394;11.136;2023-04-01T00:20:44;9.00;69.40
3198;DHT22;1611;49.394;11.136;2023-04-01T00:23:11;9.00;68.50
3198;DHT22;1611;49.394;11.136;2023-04-01T00:25:37;9.10;68.60
3198;DHT22;1611;49.394;11.136;2023-04-01T00:28:06;9.20;67.80
3198;DHT22;1611;49.394;11.136;2023-04-01T00:30:32;9.30;67.50
3198;DHT22;1611;49.394;11.136;2023-04-01T00:32:59;9.30;66.90
3198;DHT22;1611;49.394;11.136;2023-04-01T00:35:26;9.40;67.30
3198;DHT22;1611;49.394;11.136;2023-04-01T00:37:54;9.30;66.00
3198;DHT22;1611;49.394;11.136;2023-04-01T00:40:26;9.40;66.10
3198;DHT22;1611;49.394;11.136;2023-04-01T00:42:53;9.40;66.20
3198;DHT22;1611;49.394;11.136;2023-04-01T00:45:35;9.30;65.40
3198;DHT22;1611;49.394;11.136;2023-04-01T00:48:07;9.40;65.30
3198;DHT22;1611;49.394;11.136;2023-04-01T00:50:35;9.40;64.40
3198;DHT22;1611;49.394;11.136;2023-04-01T00:53:03;9.50;64.00
3198;DHT22;1611;49.394;11.136;2023-04-01T00:55:35;9.50;64.90
3198;DHT22;1611;49.394;11.136;2023-04-01T00:58:04;9.50;64.40
3198;DHT22;1611;49.394;11.136;2023-04-01T01:00:34;9.60;63.90
3198;DHT22;1611;49.394;11.136;2023-04-01T01:03:01;9.50;64.00
3198;DHT22;1611;49.394;11.136;2023-04-01T01:05:38;9.50;64.80
3198;DHT22;1611;49.394;11.136;2023-04-01T01:08:15;9.50;64.10
3198;DHT22;1611;49.394;11.136;2023-04-01T01:10:47;9.50;64.10
3198;DHT22;1611;49.394;11.136;2023-04-01T01:13:18;9.40;62.90
3198;DHT22;1611;49.394;11.136;2023-04-01T01:15:49;9.40;62.00
3198;DHT22;1611;49.394;11.136;2023-04-01T01:18:24;9.40;62.70
3198;DHT22;1611;49.394;11.136;2023-04-01T01:21:28;9.30;62.70
3198;DHT22;1611;49.394;11.136;2023-04-01T01:24:34;9.40;62.50
3198;DHT22;1611;49.394;11.136;2023-04-01T01:27:08;9.40;61.70
3198;DHT22;1611;49.394;11.136;2023-04-01T01:30:11;9.50;62.40
3198;DHT22;1611;49.394;11.136;2023-04-01T01:33:01;9.50;61.60
3198;DHT22;1611;49.394;11.136;2023-04-01T01:35:37;9.50;60.40
3198;DHT22;1611;49.394;11.136;2023-04-01T01:38:07;9.50;60.90
3198;DHT22;1611;49.394;11.136;2023-04-01T01:40:36;9.60;60.50
3198;DHT22;1611;49.394;11.136;2023-04-01T01:43:09;9.60;61.70
3198;DHT22;1611;49.394;11.136;2023-04-01T01:45:40;9.60;60.00
3198;DHT22;1611;49.394;11.136;2023-04-01T01:48:08;9.60;60.30
3198;DHT22;1611;49.394;11.136;2023-04-01T01:50:38;9.60;59.30
3198;DHT22;1611;49.394;11.136;2023-04-01T01:53:08;9.60;59.00
3198;DHT22;1611;49.394;11.136;2023-04-01T01:55:36;9.60;59.50
3198;DHT22;1611;49.394;11.136;2023-04-01T01:58:08;9.60;60.00
3198;DHT22;1611;49.394;11.136;2023-04-01T02:00:38;9.60;59.20
3198;DHT22;1611;49.394;11.136;2023-04-01T02:03:06;9.50;59.40
3198;DHT22;1611;49.394;11.136;2023-04-01T02:05:33;9.50;59.60
3198;DHT22;1611;49.394;11.136;2023-04-01T02:08:06;9.50;60.00
3198;DHT22;1611;49.394;11.136;2023-04-01T02:10:36;9.60;59.60
3198;DHT22;1611;49.394;11.136;2023-04-01T02:13:07;9.50;59.30
3198;DHT22;1611;49.394;11.136;2023-04-01T02:15:41;9.60;59.40
3198;DHT22;1611;49.394;11.136;2023-04-01T02:18:09;9.60;59.30
3198;DHT22;1611;49.394;11.136;2023-04-01T02:20:38;9.60;58.30
3198;DHT22;1611;49.394;11.136;2023-04-01T02:23:07;9.60;58.10
3198;DHT22;1611;49.394;11.136;2023-04-01T02:25:36;9.60;58.00
3198;DHT22;1611;49.394;11.136;2023-04-01T02:28:05;9.60;58.80
3198;DHT22;1611;49.394;11.136;2023-04-01T02:30:35;9.60;59.30
3198;DHT22;1611;49.394;11.136;2023-04-01T02:33:03;9.60;58.60
3198;DHT22;1611;49.394;11.136;2023-04-01T02:35:31;9.60;58.70
3198;DHT22;1611;49.394;11.136;2023-04-01T02:37:59;9.50;59.00
3198;DHT22;1611;49.394;11.136;2023-04-01T02:40:27;9.60;59.30
3198;DHT22;1611;49.394;11.136;2023-04-01T02:42:54;9.60;58.40
3198;DHT22;1611;49.394;11.136;2023-04-01T02:45:21;9.60;59.90
3198;DHT22;1611;49.394;11.136;2023-04-01T02:47:47;9.50;58.00
3198;DHT22;1611;49.394;11.136;2023-04-01T02:50:14;9.50;58.80
3198;DHT22;1611;49.394;11.136;2023-04-01T02:52:41;9.50;59.20
3198;DHT22;1611;49.394;11.136;2023-04-01T02:55:08;9.30;59.20
3198;DHT22;1611;49.394;11.136;2023-04-01T02:57:36;9.30;60.40
3198;DHT22;1611;49.394;11.136;2023-04-01T03:00:04;9.20;60.80
3198;DHT22;1611;49.394;11.136;2023-04-01T03:02:37;9.20;60.10
3198;DHT22;1611;49.394;11.136;2023-04-01T03:05:04;9.30;60.00
3198;DHT22;1611;49.394;11.136;2023-04-01T03:07:31;9.30;60.00
3198;DHT22;1611;49.394;11.136;2023-04-01T03:09:58;9.30;60.80
3198;DHT22;1611;49.394;11.136;2023-04-01T03:12:24;9.40;59.60
3198;DHT22;1611;49.394;11.136;2023-04-01T03:14:53;9.40;60.30
3198;DHT22;1611;49.394;11.136;2023-04-01T03:17:19;9.40;59.60
3198;DHT22;1611;49.394;11.136;2023-04-01T03:19:46;9.40;61.10
3198;DHT22;1611;49.394;11.136;2023-04-01T03:22:13;9.40;62.00
3198;DHT22;1611;49.394;11.136;2023-04-01T03:24:40;9.40;62.80
3198;DHT22;1611;49.394;11.136;2023-04-01T03:27:06;9.40;62.80
3198;DHT22;1611;49.394;11.136;2023-04-01T03:29:33;9.40;61.50
3198;DHT22;1611;49.394;11.136;2023-04-01T03:32:01;9.40;61.50
3198;DHT22;1611;49.394;11.136;2023-04-01T03:34:28;9.50;60.30
3198;DHT22;1611;49.394;11.136;2023-04-01T03:36:55;9.50;60.10
3198;DHT22;1611;49.394;11.136;2023-04-01T03:39:22;9.60;59.80
3198;DHT22;1611;49.394;11.136;2023-04-01T03:41:48;9.50;59.80
3198;DHT22;1611;49.394;11.136;2023-04-01T03:44:15;9.60;60.70
3198;DHT22;1611;49.394;11.136;2023-04-01T03:46:42;9.50;59.50
3198;DHT22;1611;49.394;11.136;2023-04-01T03:49:10;9.60;60.80
3198;DHT22;1611;49.394;11.136;2023-04-01T03:51:37;9.60;60.00
3198;DHT22;1611;49.394;11.136;2023-04-01T03:54:05;9.60;60.40
3198;DHT22;1611;49.394;11.136;2023-04-01T03:56:31;9.60;59.80
3198;DHT22;1611;49.394;11.136;2023-04-01T03:59:00;9.60;59.10
3198;DHT22;1611;49.394;11.136;2023-04-01T04:01:28;9.60;59.80
3198;DHT22;1611;49.394;11.136;2023-04-01T04:03:55;9.60;60.00
3198;DHT22;1611;49.394;11.136;2023-04-01T04:06:24;9.60;60.20
3198;DHT22;1611;49.394;11.136;2023-04-01T04:08:51;9.50;61.00
3198;DHT22;1611;49.394;11.136;2023-04-01T04:11:19;9.60;59.20
3198;DHT22;1611;49.394;11.136;2023-04-01T04:13:46;9.50;59.10
3198;DHT22;1611;49.394;11.136;2023-04-01T04:16:14;9.60;59.00
3198;DHT22;1611;49.394;11.136;2023-04-01T04:18:41;9.60;58.40
3198;DHT22;1611;49.394;11.136;2023-04-01T04:21:11;9.60;57.60
3198;DHT22;1611;49.394;11.136;2023-04-01T04:23:40;9.60;58.10
3198;DHT22;1611;49.394;11.136;2023-04-01T04:26:09;9.60;58.00
3198;DHT22;1611;49.394;11.136;2023-04-01T04:28:36;9.60;57.70
3198;DHT22;1611;49.394;11.136;2023-04-01T04:31:03;9.60;58.20
3198;DHT22;1611;49.394;11.136;2023-04-01T04:33:31;9.60;58.30
3198;DHT22;1611;49.394;11.136;2023-04-01T04:35:59;9.60;58.70
3198;DHT22;1611;49.394;11.136;2023-04-01T04:38:26;9.60;59.00
3198;DHT22;1611;49.394;11.136;2023-04-01T04:40:55;9.60;58.80
3198;DHT22;1611;49.394;11.136;2023-04-01T04:43:22;9.60;58.70
3198;DHT22;1611;49.394;11.136;2023-04-01T04:45:48;9.60;59.60
3198;DHT22;1611;49.394;11.136;2023-04-01T04:48:16;9.50;58.40
3198;DHT22;1611;49.394;11.136;2023-04-01T04:50:46;9.50;58.80
3198;DHT22;1611;49.394;11.136;2023-04-01T04:53:14;9.50;59.70
3198;DHT22;1611;49.394;11.136;2023-04-01T04:55:43;9.60;59.10
3198;DHT22;1611;49.394;11.136;2023-04-01T04:58:11;9.60;60.00
3198;DHT22;1611;49.394;11.136;2023-04-01T05:00:38;9.60;59.60
3198;DHT22;1611;49.394;11.136;2023-04-01T05:03:05;9.50;59.80
3198;DHT22;1611;49.394;11.136;2023-04-01T05:05:33;9.50;60.00
3198;DHT22;1611;49.394;11.136;2023-04-01T05:08:00;9.50;60.60
3198;DHT22;1611;49.394;11.136;2023-04-01T05:10:27;9.50;59.60
3198;DHT22;1611;49.394;11.136;2023-04-01T05:12:53;9.50;60.30
3198;DHT22;1611;49.394;11.136;2023-04-01T05:15:22;9.50;59.60
3198;DHT22;1611;49.394;11.136;2023-04-01T05:17:48;9.50;59.70
3198;DHT22;1611;49.394;11.136;2023-04-01T05:20:16;9.50;60.40
3198;DHT22;1611;49.394;11.136;2023-04-01T05:22:43;9.40;60.10
3198;DHT22;1611;49.394;11.136;2023-04-01T05:25:10;9.40;60.00
3198;DHT22;1611;49.394;11.136;2023-04-01T05:27:36;9.50;60.20
3198;DHT22;1611;49.394;11.136;2023-04-01T05:30:05;9.50;59.90
3198;DHT22;1611;49.394;11.136;2023-04-01T05:32:33;9.40;58.90
3198;DHT22;1611;49.394;11.136;2023-04-01T05:35:00;9.50;59.50
3198;DHT22;1611;49.394;11.136;2023-04-01T05:37:26;9.50;59.50
3198;DHT22;1611;49.394;11.136;2023-04-01T05:39:53;9.50;58.40
3198;DHT22;1611;49.394;11.136;2023-04-01T05:42:20;9.50;58.70
3198;DHT22;1611;49.394;11.136;2023-04-01T05:44:46;9.50;59.00
3198;DHT22;1611;49.394;11.136;2023-04-01T05:47:13;9.60;58.40
3198;DHT22;1611;49.394;11.136;2023-04-01T05:49:41;9.60;58.20
3198;DHT22;1611;49.394;11.136;2023-04-01T05:52:08;9.60;58.20
3198;DHT22;1611;49.394;11.136;2023-04-01T05:54:35;9.70;57.80
3198;DHT22;1611;49.394;11.136;2023-04-01T05:57:02;9.60;57.60
3198;DHT22;1611;49.394;11.136;2023-04-01T05:59:29;9.60;57.30
3198;DHT22;1611;49.394;11.136;2023-04-01T06:01:56;9.60;57.90
3198;DHT22;1611;49.394;11.136;2023-04-01T06:04:23;9.80;58.00
3198;DHT22;1611;49.394;11.136;2023-04-01T06:06:52;9.80;57.50
3198;DHT22;1611;49.394;11.136;2023-04-01T06:09:21;9.90;56.30
3198;DHT22;1611;49.394;11.136;2023-04-01T06:12:22;9.90;56.80
3198;DHT22;1611;49.394;11.136;2023-04-01T06:14:57;9.90;56.10
3198;DHT22;1611;49.394;11.136;2023-04-01T06:17:30;10.00;55.40
3198;DHT22;1611;49.394;11.136;2023-04-01T06:20:05;10.10;54.20
3198;DHT22;1611;49.394;11.136;2023-04-01T06:23:06;10.00;54.00
3198;DHT22;1611;49.394;11.136;2023-04-01T06:25:52;10.20;54.30
3198;DHT22;1611;49.394;11.136;2023-04-01T06:28:55;10.10;55.30
3198;DHT22;1611;49.394;11.136;2023-04-01T06:34:26;10.20;54.40
3198;DHT22;1611;49.394;11.136;2023-04-01T06:37:15;10.20;53.90
3198;DHT22;1611;49.394;11.136;2023-04-01T06:40:05;10.20;52.60
3198;DHT22;1611;49.394;11.136;2023-04-01T06:42:49;10.30;52.50
3198;DHT22;1611;49.394;11.136;2023-04-01T06:45:31;10.20;53.70
3198;DHT22;1611;49.394;11.136;2023-04-01T06:48:12;10.20;52.00
3198;DHT22;1611;49.394;11.136;2023-04-01T06:50:47;10.30;53.70
3198;DHT22;1611;49.394;11.136;2023-04-01T06:53:19;10.30;52.90
3198;DHT22;1611;49.394;11.136;2023-04-01T06:55:52;10.50;53.20
3198;DHT22;1611;49.394;11.136;2023-04-01T06:58:22;10.40;50.90
3198;DHT22;1611;49.394;11.136;2023-04-01T07:00:51;10.50;49.70
3198;DHT22;1611;49.394;11.136;2023-04-01T07:03:23;10.60;50.60
3198;DHT22;1611;49.394;11.136;2023-04-01T07:05:56;10.70;50.50
3198;DHT22;1611;49.394;11.136;2023-04-01T07:08:27;10.70;49.60
3198;DHT22;1611;49.394;11.136;2023-04-01T07:11:00;10.80;49.80
3198;DHT22;1611;49.394;11.136;2023-04-01T07:13:32;11.10;49.10
3198;DHT22;1611;49.394;11.136;2023-04-01T07:16:09;11.10;48.50
3198;DHT22;1611;49.394;11.136;2023-04-01T07:18:44;11.20;47.10
3198;DHT22;1611;49.394;11.136;2023-04-01T07:21:23;11.20;48.00
3198;DHT22;1611;49.394;11.136;2023-04-01T07:23:52;11.20;48.40
3198;DHT22;1611;49.394;11.136;2023-04-01T07:26:24;11.10;47.40
3198;DHT22;1611;49.394;11.136;2023-04-01T07:28:52;11.20;48.50
3198;DHT22;1611;49.394;11.136;2023-04-01T07:31:30;11.30;47.40
3198;DHT22;1611;49.394;11.136;2023-04-01T07:34:11;11.30;47.90
3198;DHT22;1611;49.394;11.136;2023-04-01T07:36:41;11.50;47.40
3198;DHT22;1611;49.394;11.136;2023-04-01T07:39:21;11.70;45.00
3198;DHT22;1611;49.394;11.136;2023-04-01T07:41:56;11.60;44.80
3198;DHT22;1611;49.394;11.136;2023-04-01T07:44:32;11.70;45.10
3198;DHT22;1611;49.394;11.136;2023-04-01T07:47:22;11.80;44.40
3198;DHT22;1611;49.394;11.136;2023-04-01T07:50:05;11.60;44.10
3198;DHT22;1611;49.394;11.136;2023-04-01T07:52:41;11.50;44.90
3198;DHT22;1611;49.394;11.136;2023-04-01T07:55:14;11.60;44.90
3198;DHT22;1611;49.394;11.136;2023-04-01T07:57:49;11.60;45.20
3198;DHT22;1611;49.394;11.136;2023-04-01T08:00:20;11.60;45.10
3198;DHT22;1611;49.394;11.136;2023-04-01T08:02:58;11.60;44.80
3198;DHT22;1611;49.394;11.136;2023-04-01T08:05:35;11.60;44.80
3198;DHT22;1611;49.394;11.136;2023-04-01T08:08:11;11.60;45.40
3198;DHT22;1611;49.394;11.136;2023-04-01T08:10:47;11.50;43.80
3198;DHT22;1611;49.394;11.136;2023-04-01T08:13:23;11.60;44.50
3198;DHT22;1611;49.394;11.136;2023-04-01T08:15:57;11.50;43.90
3198;DHT22;1611;49.394;11.136;2023-04-01T08:18:35;11.50;44.80
3198;DHT22;1611;49.394;11.136;2023-04-01T08:21:08;11.60;43.60
3198;DHT22;1611;49.394;11.136;2023-04-01T08:23:38;11.60;43.50
3198;DHT22;1611;49.394;11.136;2023-04-01T08:26:13;11.60;43.00
3198;DHT22;1611;49.394;11.136;2023-04-01T08:28:45;11.60;42.30
3198;DHT22;1611;49.394;11.136;2023-04-01T08:31:22;11.60;44.20
3198;DHT22;1611;49.394;11.136;2023-04-01T08:33:53;11.60;43.60
3198;DHT22;1611;49.394;11.136;2023-04-01T08:36:23;11.50;43.00
3198;DHT22;1611;49.394;11.136;2023-04-01T08:38:54;11.40;44.30
3198;DHT22;1611;49.394;11.136;2023-04-01T08:41:53;11.40;43.50
3198;DHT22;1611;49.394;11.136;2023-04-01T08:44:43;11.40;44.10
3198;DHT22;1611;49.394;11.136;2023-04-01T08:50:31;11.40;43.00
3198;DHT22;1611;49.394;11.136;2023-04-01T08:53:06;11.50;43.40
3198;DHT22;1611;49.394;11.136;2023-04-01T08:55:47;11.60;43.90
3198;DHT22;1611;49.394;11.136;2023-04-01T08:58:42;11.60;43.80
3198;DHT22;1611;49.394;11.136;2023-04-01T09:01:22;11.70;42.90
3198;DHT22;1611;49.394;11.136;2023-04-01T09:04:24;11.60;42.70
3198;DHT22;1611;49.394;11.136;2023-04-01T09:06:58;11.60;42.70
3198;DHT22;1611;49.394;11.136;2023-04-01T09:09:41;11.70;42.80
3198;DHT22;1611;49.394;11.136;2023-04-01T09:12:35;11.60;42.00
3198;DHT22;1611;49.394;11.136;2023-04-01T09:15:29;11.50;42.50
3198;DHT22;1611;49.394;11.136;2023-04-01T09:21:25;11.60;43.10
3198;DHT22;1611;49.394;11.136;2023-04-01T09:24:17;11.60;43.80
3198;DHT22;1611;49.394;11.136;2023-04-01T09:27:01;11.70;44.20
3198;DHT22;1611;49.394;11.136;2023-04-01T09:29:45;11.80;44.90
3198;DHT22;1611;49.394;11.136;2023-04-01T09:32:30;11.80;45.20
3198;DHT22;1611;49.394;11.136;2023-04-01T09:35:06;11.90;45.20
3198;DHT22;1611;49.394;11.136;2023-04-01T09:37:51;11.80;44.30
3198;DHT22;1611;49.394;11.136;2023-04-01T09:40:23;11.90;45.10
3198;DHT22;1611;49.394;11.136;2023-04-01T09:43:25;11.90;45.50
3198;DHT22;1611;49.394;11.136;2023-04-01T09:52:02;12.10;49.00
3198;DHT22;1611;49.394;11.136;2023-04-01T09:54:55;11.90;50.40
3198;DHT22;1611;49.394;11.136;2023-04-01T09:58:00;11.90;49.10
3198;DHT22;1611;49.394;11.136;2023-04-01T10:00:53;11.80;50.20
3198;DHT22;1611;49.394;11.136;2023-04-01T10:03:54;11.80;50.70
3198;DHT22;1611;49.394;11.136;2023-04-01T10:10:17;11.70;52.60
3198;DHT22;1611;49.394;11.136;2023-04-01T10:13:23;11.80;53.90
3198;DHT22;1611;49.394;11.136;2023-04-01T10:16:22;11.80;52.60
3198;DHT22;1611;49.394;11.136;2023-04-01T10:22:26;11.60;52.40
3198;DHT22;1611;49.394;11.136;2023-04-01T10:25:25;11.50;54.30
3198;DHT22;1611;49.394;11.136;2023-04-01T10:31:22;11.60;54.10
3198;DHT22;1611;49.394;11.136;2023-04-01T10:34:09;11.70;56.40
3198;DHT22;1611;49.394;11.136;2023-04-01T10:37:02;11.80;57.50
3198;DHT22;1611;49.394;11.136;2023-04-01T10:39:42;11.80;58.10
3198;DHT22;1611;49.394;11.136;2023-04-01T10:42:47;11.90;58.80
3198;DHT22;1611;49.394;11.136;2023-04-01T10:45:48;11.90;56.90
3198;DHT22;1611;49.394;11.136;2023-04-01T10:48:58;12.00;59.50
3198;DHT22;1611;49.394;11.136;2023-04-01T10:51:52;11.90;60.10
3198;DHT22;1611;49.394;11.136;2023-04-01T10:54:47;12.00;60.10
3198;DHT22;1611;49.394;11.136;2023-04-01T10:57:39;11.80;59.30
3198;DHT22;1611;49.394;11.136;2023-04-01T11:00:32;11.60;60.60
3198;DHT22;1611;49.394;11.136;2023-04-01T11:03:35;11.40;62.10
3198;DHT22;1611;49.394;11.136;2023-04-01T11:06:42;11.30;62.90
3198;DHT22;1611;49.394;11.136;2023-04-01T11:09:44;11.10;64.10
3198;DHT22;1611;49.394;11.136;2023-04-01T11:18:55;11.00;65.30
3198;DHT22;1611;49.394;11.136;2023-04-01T11:21:58;11.10;67.00
3198;DHT22;1611;49.394;11.136;2023-04-01T11:24:44;11.10;66.50
3198;DHT22;1611;49.394;11.136;2023-04-01T11:27:42;10.90;66.00
3198;DHT22;1611;49.394;11.136;2023-04-01T11:30:22;10.90;67.30
3198;DHT22;1611;49.394;11.136;2023-04-01T11:32:54;11.00;67.40
3198;DHT22;1611;49.394;11.136;2023-04-01T11:35:51;11.00;67.50
3198;DHT22;1611;49.394;11.136;2023-04-01T11:38:39;11.10;66.80
3198;DHT22;1611;49.394;11.136;2023-04-01T11:41:20;11.20;67.50
3198;DHT22;1611;49.394;11.136;2023-04-01T11:44:01;11.10;66.50
3198;DHT22;1611;49.394;11.136;2023-04-01T11:46:36;11.20;65.80
3198;DHT22;1611;49.394;11.136;2023-04-01T11:49:25;11.20;63.10
3198;DHT22;1611;49.394;11.136;2023-04-01T11:52:04;11.20;64.70
3198;DHT22;1611;49.394;11.136;2023-04-01T11:55:05;11.20;65.20
3198;DHT22;1611;49.394;11.136;2023-04-01T11:57:43;11.30;65.30
3198;DHT22;1611;49.394;11.136;2023-04-01T12:00:39;11.30;65.50
3198;DHT22;1611;49.394;11.136;2023-04-01T12:03:26;11.30;65.20
3198;DHT22;1611;49.394;11.136;2023-04-01T12:06:05;11.40;65.00
3198;DHT22;1611;49.394;11.136;2023-04-01T12:08:45;11.50;63.50
3198;DHT22;1611;49.394;11.136;2023-04-01T12:11:17;11.40;65.10
3198;DHT22;1611;49.394;11.136;2023-04-01T12:13:53;11.30;64.40
3198;DHT22;1611;49.394;11.136;2023-04-01T12:16:29;11.20;64.60
3198;DHT22;1611;49.394;11.136;2023-04-01T12:19:03;11.30;65.20
3198;DHT22;1611;49.394;11.136;2023-04-01T12:21:37;11.30;63.40
3198;DHT22;1611;49.394;11.136;2023-04-01T12:27:27;11.40;64.20
3198;DHT22;1611;49.394;11.136;2023-04-01T12:30:18;11.40;62.50
3198;DHT22;1611;49.394;11.136;2023-04-01T12:32:55;11.60;64.40
3198;DHT22;1611;49.394;11.136;2023-04-01T12:35:25;11.70;62.90
3198;DHT22;1611;49.394;11.136;2023-04-01T12:38:04;11.60;61.30
3198;DHT22;1611;49.394;11.136;2023-04-01T12:40:54;11.50;62.60
3198;DHT22;1611;49.394;11.136;2023-04-01T12:43:48;11.60;62.70
3198;DHT22;1611;49.394;11.136;2023-04-01T12:46:25;11.60;63.50
3198;DHT22;1611;49.394;11.136;2023-04-01T12:49:17;11.40;61.90
3198;DHT22;1611;49.394;11.136;2023-04-01T12:52:04;11.30;63.70
3198;DHT22;1611;49.394;11.136;2023-04-01T12:57:52;11.00;65.30
3198;DHT22;1611;49.394;11.136;2023-04-01T13:00:31;11.00;65.90
3198;DHT22;1611;49.394;11.136;2023-04-01T13:03:12;11.10;66.10
3198;DHT22;1611;49.394;11.136;2023-04-01T13:05:58;11.10;64.30
3198;DHT22;1611;49.394;11.136;2023-04-01T13:08:36;11.10;65.00
3198;DHT22;1611;49.394;11.136;2023-04-01T13:11:21;11.30;66.40
3198;DHT22;1611;49.394;11.136;2023-04-01T13:14:28;11.40;66.20
3198;DHT22;1611;49.394;11.136;2023-04-01T13:17:03;11.20;64.80
3198;DHT22;1611;49.394;11.136;2023-04-01T13:19:38;11.10;65.50
3198;DHT22;1611;49.394;11.136;2023-04-01T13:22:13;11.20;65.70
3198;DHT22;1611;49.394;11.136;2023-04-01T13:24:45;11.10;64.50
3198;DHT22;1611;49.394;11.136;2023-04-01T13:27:22;11.20;65.30
3198;DHT22;1611;49.394;11.136;2023-04-01T13:30:04;11.30;65.20
3198;DHT22;1611;49.394;11.136;2023-04-01T13:32:39;11.40;64.20
3198;DHT22;1611;49.394;11.136;2023-04-01T13:35:18;11.50;63.70
3198;DHT22;1611;49.394;11.136;2023-04-01T13:37:54;11.50;64.50
3198;DHT22;1611;49.394;11.136;2023-04-01T13:40:33;11.60;64.00
3198;DHT22;1611;49.394;11.136;2023-04-01T13:43:10;11.50;61.90
3198;DHT22;1611;49.394;11.136;2023-04-01T13:45:58;11.50;61.40
3198;DHT22;1611;49.394;11.136;2023-04-01T13:48:42;11.50;61.10
3198;DHT22;1611;49.394;11.136;2023-04-01T13:51:27;11.50;62.10
3198;DHT22;1611;49.394;11.136;2023-04-01T13:54:18;11.40;60.90
3198;DHT22;1611;49.394;11.136;2023-04-01T13:56:57;11.50;62.00
3198;DHT22;1611;49.394;11.136;2023-04-01T13:59:49;11.50;60.10
3198;DHT22;1611;49.394;11.136;2023-04-01T14:05:24;11.40;59.80
3198;DHT22;1611;49.394;11.136;2023-04-01T14:08:04;11.50;58.90
3198;DHT22;1611;49.394;11.136;2023-04-01T14:10:39;11.50;58.60
3198;DHT22;1611;49.394;11.136;2023-04-01T14:13:12;11.50;57.30
3198;DHT22;1611;49.394;11.136;2023-04-01T14:16:00;11.40;58.00
3198;DHT22;1611;49.394;11.136;2023-04-01T14:18:50;11.40;56.80
3198;DHT22;1611;49.394;11.136;2023-04-01T14:21:29;11.40;57.20
3198;DHT22;1611;49.394;11.136;2023-04-01T14:24:29;11.50;58.30
3198;DHT22;1611;49.394;11.136;2023-04-01T14:27:12;11.50;57.80
3198;DHT22;1611;49.394;11.136;2023-04-01T14:29:56;11.40;58.20
3198;DHT22;1611;49.394;11.136;2023-04-01T14:32:37;11.30;57.80
3198;DHT22;1611;49.394;11.136;2023-04-01T14:35:29;11.20;57.90
3198;DHT22;1611;49.394;11.136;2023-04-01T14:38:24;11.10;58.70
3198;DHT22;1611;49.394;11.136;2023-04-01T14:41:00;11.00;57.40
3198;DHT22;1611;49.394;11.136;2023-04-01T14:43:43;11.00;58.20
3198;DHT22;1611;49.394;11.136;2023-04-01T14:49:23;10.90;59.30
3198;DHT22;1611;49.394;11.136;2023-04-01T14:51:55;10.90;60.40
3198;DHT22;1611;49.394;11.136;2023-04-01T14:54:32;10.90;59.50
3198;DHT22;1611;49.394;11.136;2023-04-01T14:57:05;10.80;61.00
3198;DHT22;1611;49.394;11.136;2023-04-01T14:59:39;10.90;61.70
3198;DHT22;1611;49.394;11.136;2023-04-01T15:02:16;10.80;60.00
3198;DHT22;1611;49.394;11.136;2023-04-01T15:04:56;10.80;58.90
3198;DHT22;1611;49.394;11.136;2023-04-01T15:07:49;10.70;58.50
3198;DHT22;1611;49.394;11.136;2023-04-01T15:10:39;10.80;59.70
3198;DHT22;1611;49.394;11.136;2023-04-01T15:13:13;10.90;61.10
3198;DHT22;1611;49.394;11.136;2023-04-01T15:15:49;10.90;61.40
3198;DHT22;1611;49.394;11.136;2023-04-01T15:18:25;10.90;60.00
3198;DHT22;1611;49.394;11.136;2023-04-01T15:21:16;10.90;60.00
3198;DHT22;1611;49.394;11.136;2023-04-01T15:23:56;10.90;59.60
3198;DHT22;1611;49.394;11.136;2023-04-01T15:26:46;10.90;58.80
3198;DHT22;1611;49.394;11.136;2023-04-01T15:29:41;10.90;59.20
3198;DHT22;1611;49.394;11.136;2023-04-01T15:32:17;11.00;60.40
3198;DHT22;1611;49.394;11.136;2023-04-01T15:34:48;11.10;59.30
3198;DHT22;1611;49.394;11.136;2023-04-01T15:37:27;11.10;56.30
3198;DHT22;1611;49.394;11.136;2023-04-01T15:40:00;11.10;57.30
3198;DHT22;1611;49.394;11.136;2023-04-01T15:42:39;11.10;56.10
3198;DHT22;1611;49.394;11.136;2023-04-01T15:45:17;11.20;57.40
3198;DHT22;1611;49.394;11.136;2023-04-01T15:47:46;11.30;56.60
3198;DHT22;1611;49.394;11.136;2023-04-01T15:50:44;11.20;56.40
3198;DHT22;1611;49.394;11.136;2023-04-01T15:53:33;11.20;57.60
3198;DHT22;1611;49.394;11.136;2023-04-01T15:56:15;11.20;57.60
3198;DHT22;1611;49.394;11.136;2023-04-01T15:58:53;11.10;57.70
3198;DHT22;1611;49.394;11.136;2023-04-01T16:01:31;11.10;57.40
3198;DHT22;1611;49.394;11.136;2023-04-01T16:04:12;11.00;56.70
3198;DHT22;1611;49.394;11.136;2023-04-01T16:06:57;11.00;56.90
3198;DHT22;1611;49.394;11.136;2023-04-01T16:09:39;11.00;57.40
3198;DHT22;1611;49.394;11.136;2023-04-01T16:12:16;11.00;57.50
3198;DHT22;1611;49.394;11.136;2023-04-01T16:14:54;11.00;56.60
3198;DHT22;1611;49.394;11.136;2023-04-01T16:17:36;10.90;56.20
3198;DHT22;1611;49.394;11.136;2023-04-01T16:20:17;10.90;56.40
3198;DHT22;1611;49.394;11.136;2023-04-01T16:22:52;10.90;56.50
3198;DHT22;1611;49.394;11.136;2023-04-01T16:25:31;10.80;55.10
3198;DHT22;1611;49.394;11.136;2023-04-01T16:28:14;10.90;56.90
3198;DHT22;1611;49.394;11.136;2023-04-01T16:30:46;10.90;56.00
3198;DHT22;1611;49.394;11.136;2023-04-01T16:33:20;10.80;56.50
3198;DHT22;1611;49.394;11.136;2023-04-01T16:35:54;10.80;56.70
3198;DHT22;1611;49.394;11.136;2023-04-01T16:38:25;10.80;56.90
3198;DHT22;1611;49.394;11.136;2023-04-01T16:41:05;10.70;56.70
3198;DHT22;1611;49.394;11.136;2023-04-01T16:43:39;10.70;57.40
3198;DHT22;1611;49.394;11.136;2023-04-01T16:46:33;10.70;58.10
3198;DHT22;1611;49.394;11.136;2023-04-01T16:49:29;10.60;56.80
3198;DHT22;1611;49.394;11.136;2023-04-01T16:52:12;10.60;56.80
3198;DHT22;1611;49.394;11.136;2023-04-01T16:54:43;10.60;57.60
3198;DHT22;1611;49.394;11.136;2023-04-01T16:57:18;10.50;57.50
3198;DHT22;1611;49.394;11.136;2023-04-01T16:59:53;10.50;57.80
3198;DHT22;1611;49.394;11.136;2023-04-01T17:02:22;10.60;57.90
3198;DHT22;1611;49.394;11.136;2023-04-01T17:05:00;10.60;58.50
3198;DHT22;1611;49.394;11.136;2023-04-01T17:07:35;10.50;57.60
3198;DHT22;1611;49.394;11.136;2023-04-01T17:10:24;10.60;57.70
3198;DHT22;1611;49.394;11.136;2023-04-01T17:13:06;10.60;57.90
3198;DHT22;1611;49.394;11.136;2023-04-01T17:15:41;10.50;58.50
3198;DHT22;1611;49.394;11.136;2023-04-01T17:18:14;10.60;59.00
3198;DHT22;1611;49.394;11.136;2023-04-01T17:20:50;10.50;58.80
3198;DHT22;1611;49.394;11.136;2023-04-01T17:23:24;10.40;57.90
3198;DHT22;1611;49.394;11.136;2023-04-01T17:26:18;10.50;58.70
3198;DHT22;1611;49.394;11.136;2023-04-01T17:28:50;10.50;59.60
3198;DHT22;1611;49.394;11.136;2023-04-01T17:31:31;10.50;58.80
3198;DHT22;1611;49.394;11.136;2023-04-01T17:34:18;10.60;58.60
3198;DHT22;1611;49.394;11.136;2023-04-01T17:36:59;10.60;58.10
3198;DHT22;1611;49.394;11.136;2023-04-01T17:39:38;10.60;57.50